sensor_id;sensor_type;location;lat;lon;timestamp;temperature;humidity
21104;DHT22;10710;53.398;-1.514;2023-12-07T00:01:40;4.40;99.90
21104;DHT22;10710;53.398;-1.514;2023-12-07T00:04:25;4.30;99.90
21104;DHT22;10710;53.398;-1.514;2023-12-07T00:07:09;4.30;99.90
21104;DHT22;10710;53.398;-1.514;2023-12-07T00:09:53;4.40;99.90
21104;DHT22;10710;53.398;-1.514;2023-12-07T00:12:37;4.40;99.90
21104;DHT22;10710;53.398;-1.514;2023-12-07T00:15:22;4.50;99.90
21104;DHT22;10710;53.398;-1.514;2023-12-07T00:18:06;4.50;99.90
21104;DHT22;10710;53.398;-1.514;2023-12-07T00:20:50;4.30;99.90
21104;DHT22;10710;53.398;-1.514;2023-12-07T00:23:34;4.30;99.90
21104;DHT22;10710;53.398;-1.514;2023-12-07T00:26:18;4.40;99.90
21104;DHT22;10710;53.398;-1.514;2023-12-07T00:29:02;4.40;99.90
21104;DHT22;10710;53.398;-1.514;2023-12-07T00:31:46;4.40;99.90
21104;DHT22;10710;53.398;-1.514;2023-12-07T00:34:30;4.50;99.90
21104;DHT22;10710;53.398;-1.514;2023-12-07T00:37:18;4.50;99.90
21104;DHT22;10710;53.398;-1.514;2023-12-07T00:40:02;4.50;99.90
21104;DHT22;10710;53.398;-1.514;2023-12-07T00:42:48;4.30;99.90
21104;DHT22;10710;53.398;-1.514;2023-12-07T00:45:32;4.20;99.90
21104;DHT22;10710;53.398;-1.514;2023-12-07T00:48:16;4.30;99.90
21104;DHT22;10710;53.398;-1.514;2023-12-07T00:51:01;4.20;99.90
21104;DHT22;10710;53.398;-1.514;2023-12-07T00:53:45;4.20;99.90
21104;DHT22;10710;53.398;-1.514;2023-12-07T00:56:30;4.20;99.90
21104;DHT22;10710;53.398;-1.514;2023-12-07T00:59:15;4.20;99.90
21104;DHT22;10710;53.398;-1.514;2023-12-07T01:02:04;4.20;99.90
21104;DHT22;10710;53.398;-1.514;2023-12-07T01:04:52;4.30;99.90
21104;DHT22;10710;53.398;-1.514;2023-12-07T01:07:36;4.30;99.90
21104;DHT22;10710;53.398;-1.514;2023-12-07T01:10:22;4.30;99.90
21104;DHT22;10710;53.398;-1.514;2023-12-07T01:13:07;4.40;99.90
21104;DHT22;10710;53.398;-1.514;2023-12-07T01:15:51;4.40;99.90
21104;DHT22;10710;53.398;-1.514;2023-12-07T01:18:35;4.50;99.90
21104;DHT22;10710;53.398;-1.514;2023-12-07T01:21:20;4.50;99.90
21104;DHT22;10710;53.398;-1.514;2023-12-07T01:24:04;4.60;99.90
21104;DHT22;10710;53.398;-1.514;2023-12-07T01:26:49;4.60;99.90
21104;DHT22;10710;53.398;-1.514;2023-12-07T01:29:34;4.60;99.90
21104;DHT22;10710;53.398;-1.514;2023-12-07T01:32:18;4.70;99.90
21104;DHT22;10710;53.398;-1.514;2023-12-07T01:35:04;4.70;99.90
21104;DHT22;10710;53.398;-1.514;2023-12-07T01:37:48;4.70;99.90
21104;DHT22;10710;53.398;-1.514;2023-12-07T01:40:32;4.70;99.90
21104;DHT22;10710;53.398;-1.514;2023-12-07T01:43:18;4.70;99.90
21104;DHT22;10710;53.398;-1.514;2023-12-07T01:46:04;4.70;99.90
21104;DHT22;10710;53.398;-1.514;2023-12-07T01:48:49;4.80;99.90
21104;DHT22;10710;53.398;-1.514;2023-12-07T01:51:34;4.70;99.90
21104;DHT22;10710;53.398;-1.514;2023-12-07T01:54:20;4.80;99.90
21104;DHT22;10710;53.398;-1.514;2023-12-07T01:57:05;4.80;99.90
21104;DHT22;10710;53.398;-1.514;2023-12-07T01:59:49;4.90;99.90
21104;DHT22;10710;53.398;-1.514;2023-12-07T02:02:34;4.70;99.90
21104;DHT22;10710;53.398;-1.514;2023-12-07T02:05:20;4.70;99.90
21104;DHT22;10710;53.398;-1.514;2023-12-07T02:08:04;4.80;99.90
21104;DHT22;10710;53.398;-1.514;2023-12-07T02:10:49;4.70;99.90
21104;DHT22;10710;53.398;-1.514;2023-12-07T02:13:38;4.70;99.90
21104;DHT22;10710;53.398;-1.514;2023-12-07T02:16:39;4.80;99.90
21104;DHT22;10710;53.398;-1.514;2023-12-07T02:25:44;4.80;99.90
21104;DHT22;10710;53.398;-1.514;2023-12-07T02:28:30;4.80;99.90
21104;DHT22;10710;53.398;-1.514;2023-12-07T02:31:14;4.80;99.90
21104;DHT22;10710;53.398;-1.514;2023-12-07T02:34:01;4.90;99.90
21104;DHT22;10710;53.398;-1.514;2023-12-07T02:36:47;4.90;99.90
21104;DHT22;10710;53.398;-1.514;2023-12-07T02:39:32;4.90;99.90
21104;DHT22;10710;53.398;-1.514;2023-12-07T02:42:17;4.90;99.90
21104;DHT22;10710;53.398;-1.514;2023-12-07T02:45:03;4.80;99.90
21104;DHT22;10710;53.398;-1.514;2023-12-07T02:47:48;4.80;99.90
21104;DHT22;10710;53.398;-1.514;2023-12-07T02:50:32;4.90;99.90
21104;DHT22;10710;53.398;-1.514;2023-12-07T02:53:16;4.90;99.90
21104;DHT22;10710;53.398;-1.514;2023-12-07T02:56:00;5.00;99.90
21104;DHT22;10710;53.398;-1.514;2023-12-07T02:58:45;4.90;99.90
21104;DHT22;10710;53.398;-1.514;2023-12-07T03:01:29;5.20;99.90
21104;DHT22;10710;53.398;-1.514;2023-12-07T03:04:13;5.10;99.90
21104;DHT22;10710;53.398;-1.514;2023-12-07T03:06:58;5.20;99.90
21104;DHT22;10710;53.398;-1.514;2023-12-07T03:09:42;5.20;99.90
21104;DHT22;10710;53.398;-1.514;2023-12-07T03:12:27;5.30;99.90
21104;DHT22;10710;53.398;-1.514;2023-12-07T03:15:11;5.40;99.90
21104;DHT22;10710;53.398;-1.514;2023-12-07T03:17:57;5.40;99.90
21104;DHT22;10710;53.398;-1.514;2023-12-07T03:20:41;5.50;99.90
21104;DHT22;10710;53.398;-1.514;2023-12-07T03:23:26;5.50;99.90
21104;DHT22;10710;53.398;-1.514;2023-12-07T03:26:10;5.50;99.90
21104;DHT22;10710;53.398;-1.514;2023-12-07T03:28:54;5.40;99.90
21104;DHT22;10710;53.398;-1.514;2023-12-07T03:31:39;5.30;99.90
21104;DHT22;10710;53.398;-1.514;2023-12-07T03:34:24;5.40;99.90
21104;DHT22;10710;53.398;-1.514;2023-12-07T03:37:08;5.40;99.90
21104;DHT22;10710;53.398;-1.514;2023-12-07T03:39:52;5.30;99.90
21104;DHT22;10710;53.398;-1.514;2023-12-07T03:42:36;5.30;99.90
21104;DHT22;10710;53.398;-1.514;2023-12-07T03:45:20;5.40;99.90
21104;DHT22;10710;53.398;-1.514;2023-12-07T03:48:05;5.30;99.90
21104;DHT22;10710;53.398;-1.514;2023-12-07T03:50:49;5.30;99.90
21104;DHT22;10710;53.398;-1.514;2023-12-07T03:53:33;5.20;99.90
21104;DHT22;10710;53.398;-1.514;2023-12-07T03:56:27;5.10;99.90
21104;DHT22;10710;53.398;-1.514;2023-12-07T03:59:12;5.20;99.90
21104;DHT22;10710;53.398;-1.514;2023-12-07T04:01:56;5.30;99.90
21104;DHT22;10710;53.398;-1.514;2023-12-07T04:04:40;5.30;99.90
21104;DHT22;10710;53.398;-1.514;2023-12-07T04:07:24;5.30;99.90
21104;DHT22;10710;53.398;-1.514;2023-12-07T04:10:09;5.40;99.90
21104;DHT22;10710;53.398;-1.514;2023-12-07T04:12:53;5.40;99.90
21104;DHT22;10710;53.398;-1.514;2023-12-07T04:15:37;5.40;99.90
21104;DHT22;10710;53.398;-1.514;2023-12-07T04:18:21;5.20;99.90
21104;DHT22;10710;53.398;-1.514;2023-12-07T04:21:05;5.10;99.90
21104;DHT22;10710;53.398;-1.514;2023-12-07T04:23:50;5.10;99.90
21104;DHT22;10710;53.398;-1.514;2023-12-07T04:26:34;5.20;99.90
21104;DHT22;10710;53.398;-1.514;2023-12-07T04:29:18;5.10;99.90
21104;DHT22;10710;53.398;-1.514;2023-12-07T04:32:02;5.00;99.90
21104;DHT22;10710;53.398;-1.514;2023-12-07T04:34:47;5.10;99.90
21104;DHT22;10710;53.398;-1.514;2023-12-07T04:37:32;5.20;99.90
21104;DHT22;10710;53.398;-1.514;2023-12-07T04:40:16;5.30;99.90
21104;DHT22;10710;53.398;-1.514;2023-12-07T04:43:00;5.20;99.90
21104;DHT22;10710;53.398;-1.514;2023-12-07T04:45:44;5.30;99.90
21104;DHT22;10710;53.398;-1.514;2023-12-07T04:48:29;5.30;99.90
21104;DHT22;10710;53.398;-1.514;2023-12-07T04:51:13;5.30;99.90
21104;DHT22;10710;53.398;-1.514;2023-12-07T04:53:57;5.40;99.90
21104;DHT22;10710;53.398;-1.514;2023-12-07T04:56:42;5.50;99.90
21104;DHT22;10710;53.398;-1.514;2023-12-07T04:59:26;5.60;99.90
21104;DHT22;10710;53.398;-1.514;2023-12-07T05:02:10;5.50;99.90
21104;DHT22;10710;53.398;-1.514;2023-12-07T05:04:55;5.40;99.90
21104;DHT22;10710;53.398;-1.514;2023-12-07T05:07:40;5.50;99.90
21104;DHT22;10710;53.398;-1.514;2023-12-07T05:10:24;5.50;99.90
21104;DHT22;10710;53.398;-1.514;2023-12-07T05:13:08;5.30;99.90
21104;DHT22;10710;53.398;-1.514;2023-12-07T05:15:53;5.40;99.90
21104;DHT22;10710;53.398;-1.514;2023-12-07T05:18:37;5.20;99.90
21104;DHT22;10710;53.398;-1.514;2023-12-07T05:21:21;5.10;99.90
21104;DHT22;10710;53.398;-1.514;2023-12-07T05:24:05;5.10;99.90
21104;DHT22;10710;53.398;-1.514;2023-12-07T05:26:50;5.30;99.90
21104;DHT22;10710;53.398;-1.514;2023-12-07T05:29:34;5.40;99.90
21104;DHT22;10710;53.398;-1.514;2023-12-07T05:32:18;5.50;99.90
21104;DHT22;10710;53.398;-1.514;2023-12-07T05:35:02;5.50;99.90
21104;DHT22;10710;53.398;-1.514;2023-12-07T05:37:47;5.50;99.90
21104;DHT22;10710;53.398;-1.514;2023-12-07T05:40:31;5.60;99.90
21104;DHT22;10710;53.398;-1.514;2023-12-07T05:43:18;5.60;99.90
21104;DHT22;10710;53.398;-1.514;2023-12-07T05:46:02;5.40;99.90
21104;DHT22;10710;53.398;-1.514;2023-12-07T05:48:46;5.20;99.90
21104;DHT22;10710;53.398;-1.514;2023-12-07T05:51:30;5.20;99.90
21104;DHT22;10710;53.398;-1.514;2023-12-07T05:54:15;5.20;99.90
21104;DHT22;10710;53.398;-1.514;2023-12-07T05:56:59;5.30;99.90
21104;DHT22;10710;53.398;-1.514;2023-12-07T05:59:43;5.10;99.90
21104;DHT22;10710;53.398;-1.514;2023-12-07T06:02:28;5.10;99.90
21104;DHT22;10710;53.398;-1.514;2023-12-07T06:05:12;5.20;99.90
21104;DHT22;10710;53.398;-1.514;2023-12-07T06:07:56;5.20;99.90
21104;DHT22;10710;53.398;-1.514;2023-12-07T06:10:41;5.20;99.90
21104;DHT22;10710;53.398;-1.514;2023-12-07T06:13:25;5.20;99.90
21104;DHT22;10710;53.398;-1.514;2023-12-07T06:16:12;5.30;99.90
21104;DHT22;10710;53.398;-1.514;2023-12-07T06:19:01;5.30;99.90
21104;DHT22;10710;53.398;-1.514;2023-12-07T06:21:45;5.40;99.90
21104;DHT22;10710;53.398;-1.514;2023-12-07T06:24:29;5.40;99.90
21104;DHT22;10710;53.398;-1.514;2023-12-07T06:27:13;5.50;99.90
21104;DHT22;10710;53.398;-1.514;2023-12-07T06:29:58;5.50;99.90
21104;DHT22;10710;53.398;-1.514;2023-12-07T06:32:42;5.40;99.90
21104;DHT22;10710;53.398;-1.514;2023-12-07T06:35:26;5.60;99.90
21104;DHT22;10710;53.398;-1.514;2023-12-07T06:38:11;5.50;99.90
21104;DHT22;10710;53.398;-1.514;2023-12-07T06:40:55;5.40;99.90
21104;DHT22;10710;53.398;-1.514;2023-12-07T06:43:40;5.30;99.90
21104;DHT22;10710;53.398;-1.514;2023-12-07T06:46:24;5.30;99.90
21104;DHT22;10710;53.398;-1.514;2023-12-07T06:49:08;5.30;99.90
21104;DHT22;10710;53.398;-1.514;2023-12-07T06:51:53;5.50;99.90
21104;DHT22;10710;53.398;-1.514;2023-12-07T06:54:37;5.60;99.90
21104;DHT22;10710;53.398;-1.514;2023-12-07T06:57:22;5.60;99.90
21104;DHT22;10710;53.398;-1.514;2023-12-07T07:00:06;5.70;99.90
21104;DHT22;10710;53.398;-1.514;2023-12-07T07:02:54;5.60;99.90
21104;DHT22;10710;53.398;-1.514;2023-12-07T07:05:38;5.50;99.90
21104;DHT22;10710;53.398;-1.514;2023-12-07T07:08:23;5.60;99.90
21104;DHT22;10710;53.398;-1.514;2023-12-07T07:11:14;5.70;99.90
21104;DHT22;10710;53.398;-1.514;2023-12-07T07:13:59;5.60;99.90
21104;DHT22;10710;53.398;-1.514;2023-12-07T07:16:43;5.70;99.90
21104;DHT22;10710;53.398;-1.514;2023-12-07T07:19:27;5.80;99.90
21104;DHT22;10710;53.398;-1.514;2023-12-07T07:22:13;5.90;99.90
21104;DHT22;10710;53.398;-1.514;2023-12-07T07:24:57;5.90;99.90
21104;DHT22;10710;53.398;-1.514;2023-12-07T07:27:42;5.90;99.90
21104;DHT22;10710;53.398;-1.514;2023-12-07T07:30:26;5.80;99.90
21104;DHT22;10710;53.398;-1.514;2023-12-07T07:33:11;5.90;99.90
21104;DHT22;10710;53.398;-1.514;2023-12-07T07:35:55;5.90;99.90
21104;DHT22;10710;53.398;-1.514;2023-12-07T07:38:39;5.90;99.90
21104;DHT22;10710;53.398;-1.514;2023-12-07T07:41:23;6.00;99.90
21104;DHT22;10710;53.398;-1.514;2023-12-07T07:44:07;6.00;99.90
21104;DHT22;10710;53.398;-1.514;2023-12-07T07:46:51;5.90;99.90
21104;DHT22;10710;53.398;-1.514;2023-12-07T07:49:36;5.80;99.90
21104;DHT22;10710;53.398;-1.514;2023-12-07T07:52:21;6.00;99.90
21104;DHT22;10710;53.398;-1.514;2023-12-07T07:55:05;6.20;99.90
21104;DHT22;10710;53.398;-1.514;2023-12-07T07:57:49;6.20;99.90
21104;DHT22;10710;53.398;-1.514;2023-12-07T08:00:34;6.00;99.90
21104;DHT22;10710;53.398;-1.514;2023-12-07T08:03:18;6.10;99.90
21104;DHT22;10710;53.398;-1.514;2023-12-07T08:06:02;6.10;99.90
21104;DHT22;10710;53.398;-1.514;2023-12-07T08:08:47;6.10;99.90
21104;DHT22;10710;53.398;-1.514;2023-12-07T08:11:32;6.30;99.90
21104;DHT22;10710;53.398;-1.514;2023-12-07T08:14:17;6.30;99.90
21104;DHT22;10710;53.398;-1.514;2023-12-07T08:17:03;6.30;99.90
21104;DHT22;10710;53.398;-1.514;2023-12-07T08:19:47;6.40;99.90
21104;DHT22;10710;53.398;-1.514;2023-12-07T08:22:31;6.40;99.90
21104;DHT22;10710;53.398;-1.514;2023-12-07T08:25:15;6.30;99.90
21104;DHT22;10710;53.398;-1.514;2023-12-07T08:28:01;6.20;99.90
21104;DHT22;10710;53.398;-1.514;2023-12-07T08:30:46;6.30;99.90
21104;DHT22;10710;53.398;-1.514;2023-12-07T08:33:31;6.40;99.90
21104;DHT22;10710;53.398;-1.514;2023-12-07T08:36:15;6.40;99.90
21104;DHT22;10710;53.398;-1.514;2023-12-07T08:39:00;6.50;99.90
21104;DHT22;10710;53.398;-1.514;2023-12-07T08:41:45;6.50;99.90
21104;DHT22;10710;53.398;-1.514;2023-12-07T08:44:29;6.60;99.90
21104;DHT22;10710;53.398;-1.514;2023-12-07T08:47:14;6.60;99.90
21104;DHT22;10710;53.398;-1.514;2023-12-07T08:49:58;6.40;99.90
21104;DHT22;10710;53.398;-1.514;2023-12-07T08:52:42;6.50;99.90
21104;DHT22;10710;53.398;-1.514;2023-12-07T08:55:26;6.70;99.90
21104;DHT22;10710;53.398;-1.514;2023-12-07T08:58:10;6.70;99.90
21104;DHT22;10710;53.398;-1.514;2023-12-07T09:00:54;6.70;99.90
21104;DHT22;10710;53.398;-1.514;2023-12-07T09:03:39;6.70;99.90
21104;DHT22;10710;53.398;-1.514;2023-12-07T09:06:25;6.70;99.90
21104;DHT22;10710;53.398;-1.514;2023-12-07T09:09:09;6.70;99.90
21104;DHT22;10710;53.398;-1.514;2023-12-07T09:11:55;6.70;99.90
21104;DHT22;10710;53.398;-1.514;2023-12-07T09:14:40;6.80;99.90
21104;DHT22;10710;53.398;-1.514;2023-12-07T09:17:24;6.80;99.90
21104;DHT22;10710;53.398;-1.514;2023-12-07T09:20:09;6.70;99.90
21104;DHT22;10710;53.398;-1.514;2023-12-07T09:22:57;6.60;99.90
21104;DHT22;10710;53.398;-1.514;2023-12-07T09:25:41;6.60;99.90
21104;DHT22;10710;53.398;-1.514;2023-12-07T09:28:26;6.80;99.90
21104;DHT22;10710;53.398;-1.514;2023-12-07T09:31:11;6.90;99.90
21104;DHT22;10710;53.398;-1.514;2023-12-07T09:33:55;6.90;99.90
21104;DHT22;10710;53.398;-1.514;2023-12-07T09:36:40;7.00;99.90
21104;DHT22;10710;53.398;-1.514;2023-12-07T09:39:25;7.10;99.90
21104;DHT22;10710;53.398;-1.514;2023-12-07T09:42:09;7.10;99.90
21104;DHT22;10710;53.398;-1.514;2023-12-07T09:44:54;7.00;99.90
21104;DHT22;10710;53.398;-1.514;2023-12-07T09:47:39;6.90;99.90
21104;DHT22;10710;53.398;-1.514;2023-12-07T09:50:25;6.80;99.90
21104;DHT22;10710;53.398;-1.514;2023-12-07T09:53:10;6.80;99.90
21104;DHT22;10710;53.398;-1.514;2023-12-07T09:55:54;6.80;99.90
21104;DHT22;10710;53.398;-1.514;2023-12-07T09:58:39;6.60;99.90
21104;DHT22;10710;53.398;-1.514;2023-12-07T10:01:28;6.60;99.90
21104;DHT22;10710;53.398;-1.514;2023-12-07T10:04:22;6.70;99.90
21104;DHT22;10710;53.398;-1.514;2023-12-07T10:07:10;6.70;99.90
21104;DHT22;10710;53.398;-1.514;2023-12-07T10:09:54;6.80;99.90
21104;DHT22;10710;53.398;-1.514;2023-12-07T10:12:59;7.10;99.90
21104;DHT22;10710;53.398;-1.514;2023-12-07T10:15:43;7.10;99.90
21104;DHT22;10710;53.398;-1.514;2023-12-07T10:18:28;7.10;99.90
21104;DHT22;10710;53.398;-1.514;2023-12-07T10:21:13;7.00;99.90
21104;DHT22;10710;53.398;-1.514;2023-12-07T10:23:58;6.90;99.90
21104;DHT22;10710;53.398;-1.514;2023-12-07T10:26:43;6.80;99.90
21104;DHT22;10710;53.398;-1.514;2023-12-07T10:29:28;7.10;99.90
21104;DHT22;10710;53.398;-1.514;2023-12-07T10:32:12;6.90;99.90
21104;DHT22;10710;53.398;-1.514;2023-12-07T10:34:56;7.10;99.90
21104;DHT22;10710;53.398;-1.514;2023-12-07T10:37:42;7.00;99.90
21104;DHT22;10710;53.398;-1.514;2023-12-07T10:40:26;7.10;99.90
21104;DHT22;10710;53.398;-1.514;2023-12-07T10:43:12;7.00;99.90
21104;DHT22;10710;53.398;-1.514;2023-12-07T10:45:57;6.90;99.90
21104;DHT22;10710;53.398;-1.514;2023-12-07T10:48:43;6.90;99.90
21104;DHT22;10710;53.398;-1.514;2023-12-07T10:54:18;7.00;99.90
21104;DHT22;10710;53.398;-1.514;2023-12-07T10:57:06;7.10;99.90
21104;DHT22;10710;53.398;-1.514;2023-12-07T10:59:52;7.00;99.90
21104;DHT22;10710;53.398;-1.514;2023-12-07T11:02:38;7.10;99.90
21104;DHT22;10710;53.398;-1.514;2023-12-07T11:05:23;7.10;99.90
21104;DHT22;10710;53.398;-1.514;2023-12-07T11:08:09;7.20;99.90
21104;DHT22;10710;53.398;-1.514;2023-12-07T11:13:57;7.30;99.90
21104;DHT22;10710;53.398;-1.514;2023-12-07T11:16:44;7.30;99.90
21104;DHT22;10710;53.398;-1.514;2023-12-07T11:22:14;7.50;99.90
21104;DHT22;10710;53.398;-1.514;2023-12-07T11:24:58;7.30;99.90
21104;DHT22;10710;53.398;-1.514;2023-12-07T11:27:45;7.40;99.90
21104;DHT22;10710;53.398;-1.514;2023-12-07T11:30:32;7.40;99.90
21104;DHT22;10710;53.398;-1.514;2023-12-07T11:33:17;7.50;99.90
21104;DHT22;10710;53.398;-1.514;2023-12-07T11:36:11;7.60;99.90
21104;DHT22;10710;53.398;-1.514;2023-12-07T11:41:51;7.40;99.90
21104;DHT22;10710;53.398;-1.514;2023-12-07T11:44:42;7.40;99.90
21104;DHT22;10710;53.398;-1.514;2023-12-07T11:47:27;7.50;99.90
21104;DHT22;10710;53.398;-1.514;2023-12-07T11:50:12;7.60;99.90
21104;DHT22;10710;53.398;-1.514;2023-12-07T11:52:56;7.50;99.90
21104;DHT22;10710;53.398;-1.514;2023-12-07T11:55:42;7.60;99.90
21104;DHT22;10710;53.398;-1.514;2023-12-07T11:58:31;7.60;99.90
21104;DHT22;10710;53.398;-1.514;2023-12-07T12:01:17;7.70;99.90
21104;DHT22;10710;53.398;-1.514;2023-12-07T12:04:01;7.70;99.90
21104;DHT22;10710;53.398;-1.514;2023-12-07T12:06:45;7.80;99.90
21104;DHT22;10710;53.398;-1.514;2023-12-07T12:09:30;7.80;99.90
21104;DHT22;10710;53.398;-1.514;2023-12-07T12:12:14;7.70;99.90
21104;DHT22;10710;53.398;-1.514;2023-12-07T12:14:59;7.80;99.90
21104;DHT22;10710;53.398;-1.514;2023-12-07T12:17:43;7.80;99.90
21104;DHT22;10710;53.398;-1.514;2023-12-07T12:20:28;7.90;99.90
21104;DHT22;10710;53.398;-1.514;2023-12-07T12:23:13;7.90;99.90
21104;DHT22;10710;53.398;-1.514;2023-12-07T12:25:58;7.90;99.90
21104;DHT22;10710;53.398;-1.514;2023-12-07T12:28:43;7.70;99.90
21104;DHT22;10710;53.398;-1.514;2023-12-07T12:31:28;7.50;99.90
21104;DHT22;10710;53.398;-1.514;2023-12-07T12:34:13;7.40;99.90
21104;DHT22;10710;53.398;-1.514;2023-12-07T12:36:57;7.60;99.90
21104;DHT22;10710;53.398;-1.514;2023-12-07T12:39:42;7.70;99.90
21104;DHT22;10710;53.398;-1.514;2023-12-07T12:42:27;7.70;99.90
21104;DHT22;10710;53.398;-1.514;2023-12-07T12:45:11;7.60;99.90
21104;DHT22;10710;53.398;-1.514;2023-12-07T12:47:56;7.60;99.90
21104;DHT22;10710;53.398;-1.514;2023-12-07T12:50:41;7.60;99.90
21104;DHT22;10710;53.398;-1.514;2023-12-07T12:53:27;7.60;99.90
21104;DHT22;10710;53.398;-1.514;2023-12-07T12:56:11;7.70;99.90
21104;DHT22;10710;53.398;-1.514;2023-12-07T12:58:55;7.80;99.90
21104;DHT22;10710;53.398;-1.514;2023-12-07T13:01:42;7.80;99.90
21104;DHT22;10710;53.398;-1.514;2023-12-07T13:04:26;7.70;99.90
21104;DHT22;10710;53.398;-1.514;2023-12-07T13:07:12;7.70;99.90
21104;DHT22;10710;53.398;-1.514;2023-12-07T13:09:56;7.60;99.90
21104;DHT22;10710;53.398;-1.514;2023-12-07T13:12:40;7.60;99.90
21104;DHT22;10710;53.398;-1.514;2023-12-07T13:15:25;7.50;99.90
21104;DHT22;10710;53.398;-1.514;2023-12-07T13:18:09;7.60;99.90
21104;DHT22;10710;53.398;-1.514;2023-12-07T13:20:53;7.60;99.90
21104;DHT22;10710;53.398;-1.514;2023-12-07T13:23:37;7.50;99.90
21104;DHT22;10710;53.398;-1.514;2023-12-07T13:26:22;7.50;99.90
21104;DHT22;10710;53.398;-1.514;2023-12-07T13:29:07;7.50;99.90
21104;DHT22;10710;53.398;-1.514;2023-12-07T13:31:52;7.40;99.90
21104;DHT22;10710;53.398;-1.514;2023-12-07T13:34:36;7.40;99.90
21104;DHT22;10710;53.398;-1.514;2023-12-07T13:37:20;7.30;99.90
21104;DHT22;10710;53.398;-1.514;2023-12-07T13:40:06;7.40;99.90
21104;DHT22;10710;53.398;-1.514;2023-12-07T13:42:54;7.50;99.90
21104;DHT22;10710;53.398;-1.514;2023-12-07T13:45:38;7.40;99.90
21104;DHT22;10710;53.398;-1.514;2023-12-07T13:48:23;7.50;99.90
21104;DHT22;10710;53.398;-1.514;2023-12-07T13:51:08;7.60;99.90
21104;DHT22;10710;53.398;-1.514;2023-12-07T13:53:52;7.50;99.90
21104;DHT22;10710;53.398;-1.514;2023-12-07T13:56:39;7.40;99.90
21104;DHT22;10710;53.398;-1.514;2023-12-07T13:59:23;7.30;99.90
21104;DHT22;10710;53.398;-1.514;2023-12-07T14:02:08;7.30;99.90
21104;DHT22;10710;53.398;-1.514;2023-12-07T14:04:52;7.30;99.90
21104;DHT22;10710;53.398;-1.514;2023-12-07T14:07:36;7.50;99.90
21104;DHT22;10710;53.398;-1.514;2023-12-07T14:10:21;7.50;99.90
21104;DHT22;10710;53.398;-1.514;2023-12-07T14:13:05;7.50;99.90
21104;DHT22;10710;53.398;-1.514;2023-12-07T14:15:49;7.50;99.90
21104;DHT22;10710;53.398;-1.514;2023-12-07T14:18:34;7.50;99.90
21104;DHT22;10710;53.398;-1.514;2023-12-07T14:21:21;7.50;99.90
21104;DHT22;10710;53.398;-1.514;2023-12-07T14:24:07;7.50;99.90
21104;DHT22;10710;53.398;-1.514;2023-12-07T14:26:55;7.50;99.90
21104;DHT22;10710;53.398;-1.514;2023-12-07T14:29:39;7.50;99.90
21104;DHT22;10710;53.398;-1.514;2023-12-07T14:32:24;7.60;99.90
21104;DHT22;10710;53.398;-1.514;2023-12-07T14:35:09;7.60;99.90
21104;DHT22;10710;53.398;-1.514;2023-12-07T14:37:53;7.40;99.90
21104;DHT22;10710;53.398;-1.514;2023-12-07T14:40:37;7.50;99.90
21104;DHT22;10710;53.398;-1.514;2023-12-07T14:43:21;7.60;99.90
21104;DHT22;10710;53.398;-1.514;2023-12-07T14:46:06;7.70;99.90
21104;DHT22;10710;53.398;-1.514;2023-12-07T14:48:51;7.70;99.90
21104;DHT22;10710;53.398;-1.514;2023-12-07T14:51:35;7.50;99.90
21104;DHT22;10710;53.398;-1.514;2023-12-07T14:54:19;7.60;99.90
21104;DHT22;10710;53.398;-1.514;2023-12-07T14:57:03;7.70;99.90
21104;DHT22;10710;53.398;-1.514;2023-12-07T14:59:52;7.70;99.90
21104;DHT22;10710;53.398;-1.514;2023-12-07T15:02:38;7.70;99.90
21104;DHT22;10710;53.398;-1.514;2023-12-07T15:05:22;7.60;99.90
21104;DHT22;10710;53.398;-1.514;2023-12-07T15:08:06;7.50;99.90
21104;DHT22;10710;53.398;-1.514;2023-12-07T15:10:51;7.40;99.90
21104;DHT22;10710;53.398;-1.514;2023-12-07T15:13:36;7.40;99.90
21104;DHT22;10710;53.398;-1.514;2023-12-07T15:16:21;7.40;99.90
21104;DHT22;10710;53.398;-1.514;2023-12-07T15:19:05;7.50;99.90
21104;DHT22;10710;53.398;-1.514;2023-12-07T15:21:49;7.50;99.90
21104;DHT22;10710;53.398;-1.514;2023-12-07T15:24:34;7.50;99.90
21104;DHT22;10710;53.398;-1.514;2023-12-07T15:27:19;7.50;99.90
21104;DHT22;10710;53.398;-1.514;2023-12-07T15:30:03;7.40;99.90
21104;DHT22;10710;53.398;-1.514;2023-12-07T15:32:51;7.50;99.90
21104;DHT22;10710;53.398;-1.514;2023-12-07T15:35:35;7.60;99.90
21104;DHT22;10710;53.398;-1.514;2023-12-07T15:38:19;7.50;99.90
21104;DHT22;10710;53.398;-1.514;2023-12-07T15:41:03;7.50;99.90
21104;DHT22;10710;53.398;-1.514;2023-12-07T15:43:48;7.40;99.90
21104;DHT22;10710;53.398;-1.514;2023-12-07T15:46:32;7.40;99.90
21104;DHT22;10710;53.398;-1.514;2023-12-07T15:49:16;7.40;99.90
21104;DHT22;10710;53.398;-1.514;2023-12-07T15:52:01;7.50;99.90
21104;DHT22;10710;53.398;-1.514;2023-12-07T15:54:46;7.60;99.90
21104;DHT22;10710;53.398;-1.514;2023-12-07T15:57:30;7.40;99.90
21104;DHT22;10710;53.398;-1.514;2023-12-07T16:00:15;7.50;99.90
21104;DHT22;10710;53.398;-1.514;2023-12-07T16:02:59;7.90;99.90
21104;DHT22;10710;53.398;-1.514;2023-12-07T16:05:43;7.50;99.90
21104;DHT22;10710;53.398;-1.514;2023-12-07T16:08:27;7.70;99.90
21104;DHT22;10710;53.398;-1.514;2023-12-07T16:11:11;7.30;99.90
21104;DHT22;10710;53.398;-1.514;2023-12-07T16:13:56;7.50;99.90
21104;DHT22;10710;53.398;-1.514;2023-12-07T16:16:40;7.50;99.90
21104;DHT22;10710;53.398;-1.514;2023-12-07T16:19:24;7.50;99.90
21104;DHT22;10710;53.398;-1.514;2023-12-07T16:22:08;7.60;99.90
21104;DHT22;10710;53.398;-1.514;2023-12-07T16:24:53;7.60;99.90
21104;DHT22;10710;53.398;-1.514;2023-12-07T16:27:37;7.50;99.90
21104;DHT22;10710;53.398;-1.514;2023-12-07T16:30:22;7.60;99.90
21104;DHT22;10710;53.398;-1.514;2023-12-07T16:33:06;7.60;99.90
21104;DHT22;10710;53.398;-1.514;2023-12-07T16:35:50;7.70;99.90
21104;DHT22;10710;53.398;-1.514;2023-12-07T16:38:39;7.80;99.90
21104;DHT22;10710;53.398;-1.514;2023-12-07T16:41:27;7.70;99.90
21104;DHT22;10710;53.398;-1.514;2023-12-07T16:44:14;7.80;99.90
21104;DHT22;10710;53.398;-1.514;2023-12-07T16:46:58;7.80;99.90
21104;DHT22;10710;53.398;-1.514;2023-12-07T16:49:43;7.60;99.90
21104;DHT22;10710;53.398;-1.514;2023-12-07T16:52:27;7.60;99.90
21104;DHT22;10710;53.398;-1.514;2023-12-07T16:55:11;7.60;99.90
21104;DHT22;10710;53.398;-1.514;2023-12-07T16:57:55;7.60;99.90
21104;DHT22;10710;53.398;-1.514;2023-12-07T17:00:40;7.50;99.90
21104;DHT22;10710;53.398;-1.514;2023-12-07T17:03:25;7.60;99.90
21104;DHT22;10710;53.398;-1.514;2023-12-07T17:06:15;7.70;99.90
21104;DHT22;10710;53.398;-1.514;2023-12-07T17:09:00;7.50;99.90
21104;DHT22;10710;53.398;-1.514;2023-12-07T17:11:46;7.30;99.90
21104;DHT22;10710;53.398;-1.514;2023-12-07T17:14:30;7.40;99.90
21104;DHT22;10710;53.398;-1.514;2023-12-07T17:17:14;7.40;99.90
21104;DHT22;10710;53.398;-1.514;2023-12-07T17:19:59;7.60;99.90
21104;DHT22;10710;53.398;-1.514;2023-12-07T17:22:44;7.50;99.90
21104;DHT22;10710;53.398;-1.514;2023-12-07T17:25:28;7.40;99.90
21104;DHT22;10710;53.398;-1.514;2023-12-07T17:28:13;7.40;99.90
21104;DHT22;10710;53.398;-1.514;2023-12-07T17:30:58;7.40;99.90
21104;DHT22;10710;53.398;-1.514;2023-12-07T17:33:42;7.30;99.90
21104;DHT22;10710;53.398;-1.514;2023-12-07T17:36:26;7.30;99.90
21104;DHT22;10710;53.398;-1.514;2023-12-07T17:39:10;7.40;99.90